Z E U S — IFWZ — position and weather

sailwx.info

Track history (hours):
 
Tides and Currents Weather Stations Pressure Air Temp Water Temp Dewpoint Dewpoint Depression Visibility Wind Speed Wind Dir Waves Ship Positions

Z E U S

Last reported at 2015-May-04 13:33 UTC. Time now 2015-May-05 22:21 UTC.
Position N 38°01' E 012°31'.

Length 53 m; draft 2.5 m.

Type: Ship. MMSI: 247072100.

Date/timePositionNaut miles runAvg speedWind from/ knotsBaromVisibWave heightAir tempDewpointWater temp
2015-May-04 13:33N 38°01' E 012°31'0 0.0
2015-May-04 12:33N 38°01' E 012°31'0 0.0
2015-May-04 11:33N 38°01' E 012°31'5 4.7
2015-May-04 10:33N 37°58' E 012°26'5 5.4
2015-May-04 09:33N 37°56' E 012°20'0 0.0
2015-May-04 08:33N 37°56' E 012°20'0 0.0
2015-May-04 07:33N 37°56' E 012°20'0 0.0
2015-May-04 06:33N 37°56' E 012°19'6 5.9
2015-May-04 05:33N 37°59' E 012°26'4 4.3
2015-May-04 04:33N 38°01' E 012°31'0 0.0
2015-May-02 11:28N 38°01' E 012°31'5 5.5
2015-May-02 10:33N 37°59' E 012°25'5 5.1
2015-May-02 09:33N 37°56' E 012°20'0 0.0
2015-May-02 08:33N 37°56' E 012°19'0 0.0
2015-May-02 07:33N 37°56' E 012°20'0 0.0
2015-May-02 06:33N 37°56' E 012°20'5 5.2
2015-May-02 05:33N 37°59' E 012°25'5 4.9
2015-May-02 04:33N 38°01' E 012°31'0 0.0
2015-May-01 11:16N 38°01' E 012°31'5 6.4
2015-May-01 10:33N 37°59' E 012°26'6 5.5
2015-May-01 09:33N 37°56' E 012°19'0 0.0
2015-May-01 08:33N 37°56' E 012°19'0 0.0
2015-May-01 07:33N 37°56' E 012°19'2 2.2
2015-May-01 06:33N 37°58' E 012°20'4 3.5
2015-May-01 05:34N 37°58' E 012°25'6 5.6
2015-May-01 04:34N 38°01' E 012°31'0 0.0
2015-Apr-30 12:33N 38°01' E 012°31'0 0.0
2015-Apr-30 11:33N 38°01' E 012°31'5 5.3
2015-Apr-30 10:33N 37°58' E 012°25'5 4.8
2015-Apr-30 09:33N 37°56' E 012°20'0 0.0
2015-Apr-30 08:34N 37°56' E 012°19'0 0.0
2015-Apr-30 07:34N 37°56' E 012°19'0 0.0
2015-Apr-30 06:34N 37°56' E 012°20'6 5.9
2015-Apr-30 05:34N 37°59' E 012°26'4 4.3
2015-Apr-30 04:34N 38°01' E 012°31'0 0.0
2015-Apr-29 12:33N 38°01' E 012°31'0 0.0
2015-Apr-29 11:33N 38°01' E 012°31'5 5.4
2015-Apr-29 10:33N 37°58' E 012°25'5 4.7
2015-Apr-29 09:33N 37°56' E 012°20'0 0.0
2015-Apr-29 08:33N 37°56' E 012°20'0 0.0
2015-Apr-29 07:32N 37°56' E 012°20'0 0.0
2015-Apr-29 06:33N 37°56' E 012°20'7 6.7
2015-Apr-29 05:33N 37°60' E 012°27'3 3.5
2015-Apr-29 04:33N 38°01' E 012°31'0 0.0
2015-Apr-28 18:13N 38°01' E 012°31'0 0.0
2015-Apr-28 13:27N 38°01' E 012°31'0 0.0
2015-Apr-28 12:33N 38°01' E 012°31'0 0.0
2015-Apr-28 11:33N 38°01' E 012°31'0 0.0
2015-Apr-28 10:33N 38°01' E 012°31'0 0.0
2015-Apr-28 09:33N 38°01' E 012°31'0 0.0
2015-Apr-28 08:33N 38°01' E 012°31'0 0.0
2015-Apr-28 07:33N 38°01' E 012°31'0 0.0
2015-Apr-28 06:33N 38°01' E 012°31'0 0.0
2015-Apr-28 05:33N 38°01' E 012°31'0 0.0
2015-Apr-28 04:33N 38°01' E 012°31'0 0.0
2015-Apr-27 12:33N 38°01' E 012°31'0 0.0
2015-Apr-27 11:34N 38°01' E 012°31'5 4.6
2015-Apr-27 10:34N 37°59' E 012°26'6 5.4
2015-Apr-27 09:33N 37°56' E 012°20'0 0.0
2015-Apr-27 08:34N 37°56' E 012°20'0 0.0
2015-Apr-27 07:34N 37°56' E 012°20'0 0.0
2015-Apr-27 06:34N 37°56' E 012°20'5 4.5
2015-Apr-27 05:34N 37°58' E 012°25'6 5.5
2015-Apr-27 04:33N 38°01' E 012°31'0 0.0
2015-Apr-25 11:21N 38°01' E 012°31'6 6.9
2015-Apr-25 10:33N 37°58' E 012°25'5 4.6
2015-Apr-25 09:33N 37°56' E 012°20'0 0.0
2015-Apr-25 08:33N 37°56' E 012°20'0 0.0
2015-Apr-25 07:33N 37°56' E 012°20'0 0.0
2015-Apr-25 06:33N 37°56' E 012°20'4 3.6
2015-Apr-25 05:33N 37°58' E 012°24'6 6.5
2015-Apr-25 04:33N 38°01' E 012°31'  
Track history (hours):
 
Tides and Currents Weather Stations Pressure Air Temp Water Temp Dewpoint Dewpoint Depression Visibility Wind Speed Wind Dir Waves Ship Positions

Z E U S

Last reported at 2015-May-04 13:33 UTC. Time now 2015-May-05 22:21 UTC.
Position N 38°01' E 012°31'.

Length 53 m; draft 2.5 m.

Type: Ship. MMSI: 247072100.

Date/timePositionNaut miles runAvg speedWind from/ knotsBaromVisibWave heightAir tempDewpointWater temp
2015-May-04 13:33N 38°01' E 012°31'0 0.0
2015-May-04 12:33N 38°01' E 012°31'0 0.0
2015-May-04 11:33N 38°01' E 012°31'5 4.7
2015-May-04 10:33N 37°58' E 012°26'5 5.4
2015-May-04 09:33N 37°56' E 012°20'0 0.0
2015-May-04 08:33N 37°56' E 012°20'0 0.0
2015-May-04 07:33N 37°56' E 012°20'0 0.0
2015-May-04 06:33N 37°56' E 012°19'6 5.9
2015-May-04 05:33N 37°59' E 012°26'4 4.3
2015-May-04 04:33N 38°01' E 012°31'0 0.0
2015-May-02 11:28N 38°01' E 012°31'5 5.5
2015-May-02 10:33N 37°59' E 012°25'5 5.1
2015-May-02 09:33N 37°56' E 012°20'0 0.0
2015-May-02 08:33N 37°56' E 012°19'0 0.0
2015-May-02 07:33N 37°56' E 012°20'0 0.0
2015-May-02 06:33N 37°56' E 012°20'5 5.2
2015-May-02 05:33N 37°59' E 012°25'5 4.9
2015-May-02 04:33N 38°01' E 012°31'0 0.0
2015-May-01 11:16N 38°01' E 012°31'5 6.4
2015-May-01 10:33N 37°59' E 012°26'6 5.5
2015-May-01 09:33N 37°56' E 012°19'0 0.0
2015-May-01 08:33N 37°56' E 012°19'0 0.0
2015-May-01 07:33N 37°56' E 012°19'2 2.2
2015-May-01 06:33N 37°58' E 012°20'4 3.5
2015-May-01 05:34N 37°58' E 012°25'6 5.6
2015-May-01 04:34N 38°01' E 012°31'0 0.0
2015-Apr-30 12:33N 38°01' E 012°31'0 0.0
2015-Apr-30 11:33N 38°01' E 012°31'5 5.3
2015-Apr-30 10:33N 37°58' E 012°25'5 4.8
2015-Apr-30 09:33N 37°56' E 012°20'0 0.0
2015-Apr-30 08:34N 37°56' E 012°19'0 0.0
2015-Apr-30 07:34N 37°56' E 012°19'0 0.0
2015-Apr-30 06:34N 37°56' E 012°20'6 5.9
2015-Apr-30 05:34N 37°59' E 012°26'4 4.3
2015-Apr-30 04:34N 38°01' E 012°31'0 0.0
2015-Apr-29 12:33N 38°01' E 012°31'0 0.0
2015-Apr-29 11:33N 38°01' E 012°31'5 5.4
2015-Apr-29 10:33N 37°58' E 012°25'5 4.7
2015-Apr-29 09:33N 37°56' E 012°20'0 0.0
2015-Apr-29 08:33N 37°56' E 012°20'0 0.0
2015-Apr-29 07:32N 37°56' E 012°20'0 0.0
2015-Apr-29 06:33N 37°56' E 012°20'7 6.7
2015-Apr-29 05:33N 37°60' E 012°27'3 3.5
2015-Apr-29 04:33N 38°01' E 012°31'0 0.0
2015-Apr-28 18:13N 38°01' E 012°31'0 0.0
2015-Apr-28 13:27N 38°01' E 012°31'0 0.0
2015-Apr-28 12:33N 38°01' E 012°31'0 0.0
2015-Apr-28 11:33N 38°01' E 012°31'0 0.0
2015-Apr-28 10:33N 38°01' E 012°31'0 0.0
2015-Apr-28 09:33N 38°01' E 012°31'0 0.0
2015-Apr-28 08:33N 38°01' E 012°31'0 0.0
2015-Apr-28 07:33N 38°01' E 012°31'0 0.0
2015-Apr-28 06:33N 38°01' E 012°31'0 0.0
2015-Apr-28 05:33N 38°01' E 012°31'0 0.0
2015-Apr-28 04:33N 38°01' E 012°31'0 0.0
2015-Apr-27 12:33N 38°01' E 012°31'0 0.0
2015-Apr-27 11:34N 38°01' E 012°31'5 4.6
2015-Apr-27 10:34N 37°59' E 012°26'6 5.4
2015-Apr-27 09:33N 37°56' E 012°20'0 0.0
2015-Apr-27 08:34N 37°56' E 012°20'0 0.0
2015-Apr-27 07:34N 37°56' E 012°20'0 0.0
2015-Apr-27 06:34N 37°56' E 012°20'5 4.5
2015-Apr-27 05:34N 37°58' E 012°25'6 5.5
2015-Apr-27 04:33N 38°01' E 012°31'0 0.0
2015-Apr-25 11:21N 38°01' E 012°31'6 6.9
2015-Apr-25 10:33N 37°58' E 012°25'5 4.6
2015-Apr-25 09:33N 37°56' E 012°20'0 0.0
2015-Apr-25 08:33N 37°56' E 012°20'0 0.0
2015-Apr-25 07:33N 37°56' E 012°20'0 0.0
2015-Apr-25 06:33N 37°56' E 012°20'4 3.6
2015-Apr-25 05:33N 37°58' E 012°24'6 6.5
2015-Apr-25 04:33N 38°01' E 012°31'  

Dump ship's entire track history